createdAt,value
2022-08-11T00:01:48.866Z,1.70
2022-08-11T00:04:16.165Z,1.88
2022-08-11T00:06:43.688Z,1.63
2022-08-11T00:09:16.391Z,1.63
2022-08-11T00:11:44.729Z,1.80
2022-08-11T00:14:13.927Z,1.90
2022-08-11T00:16:41.761Z,1.60
2022-08-11T00:19:08.354Z,1.73
2022-08-11T00:22:04.762Z,2.03
2022-08-11T00:24:33.081Z,1.70
2022-08-11T00:27:05.831Z,1.50
2022-08-11T00:29:32.367Z,1.65
2022-08-11T00:32:01.444Z,1.80
2022-08-11T00:34:28.505Z,1.52
2022-08-11T00:37:00.858Z,1.92
2022-08-11T00:39:29.153Z,1.70
2022-08-11T00:42:10.690Z,2.10
2022-08-11T00:44:56.617Z,2.17
2022-08-11T00:47:31.876Z,2.13
2022-08-11T00:50:04.186Z,2.10
2022-08-11T00:52:47.931Z,1.88
2022-08-11T00:55:33.203Z,1.90
2022-08-11T00:58:11.499Z,2.05
2022-08-11T01:00:57.871Z,2.03
2022-08-11T01:03:38.290Z,1.80
2022-08-11T01:06:19.703Z,2.30
2022-08-11T01:08:49.316Z,1.80
2022-08-11T01:11:21.588Z,1.70
2022-08-11T01:14:01.260Z,1.95
2022-08-11T01:16:27.630Z,2.08
2022-08-11T01:19:16.633Z,1.80
2022-08-11T01:22:01.380Z,1.83
2022-08-11T01:24:46.489Z,2.07
2022-08-11T01:27:19.364Z,2.13
2022-08-11T01:30:04.922Z,2.38
2022-08-11T01:32:50.032Z,2.00
2022-08-11T01:35:35.117Z,2.30
2022-08-11T01:38:20.646Z,2.25
2022-08-11T01:40:52.287Z,2.47
2022-08-11T01:43:46.286Z,2.28
2022-08-11T01:46:20.285Z,2.53
2022-08-11T01:50:08.402Z,2.25
2022-08-11T01:51:55.421Z,1.98
2022-08-11T01:54:28.292Z,2.20
2022-08-11T01:57:13.187Z,1.90
2022-08-11T01:59:49.304Z,2.38
2022-08-11T02:02:47.448Z,2.20
2022-08-11T02:05:32.536Z,2.60
2022-08-11T02:07:58.825Z,2.22
2022-08-11T02:11:05.830Z,2.30
2022-08-11T02:13:47.312Z,2.90
2022-08-11T02:16:27.971Z,2.05
2022-08-11T02:19:39.799Z,2.83
2022-08-11T02:22:34.922Z,2.60
2022-08-11T02:25:19.871Z,2.87
2022-08-11T02:28:04.937Z,2.85
2022-08-11T02:30:39.538Z,2.65
2022-08-11T02:33:23.070Z,2.72
2022-08-11T02:36:03.839Z,2.38
2022-08-11T02:38:32.885Z,2.95
2022-08-11T02:41:38.463Z,2.85
2022-08-11T02:44:23.404Z,2.80
2022-08-11T02:47:00.672Z,2.78
2022-08-11T02:50:00.018Z,3.00
2022-08-11T02:53:00.839Z,2.90
2022-08-11T02:55:48.960Z,2.85
2022-08-11T02:58:26.893Z,2.88
2022-08-11T03:00:57.202Z,2.60
2022-08-11T03:03:39.195Z,2.85
2022-08-11T03:06:35.561Z,2.90
2022-08-11T03:09:01.884Z,2.85
2022-08-11T03:12:01.084Z,2.30
2022-08-11T03:14:57.952Z,2.75
2022-08-11T03:17:24.216Z,2.78
2022-08-11T03:20:09.141Z,2.90
2022-08-11T03:22:59.549Z,2.80
2022-08-11T03:25:44.403Z,2.65
2022-08-11T03:28:28.615Z,2.63
2022-08-11T03:31:06.723Z,2.85
2022-08-11T03:33:56.399Z,3.00
2022-08-11T03:37:16.746Z,2.63
2022-08-11T03:39:56.781Z,3.00
2022-08-11T03:42:41.926Z,2.90
2022-08-11T03:45:25.905Z,2.92
2022-08-11T03:48:10.517Z,3.05
2022-08-11T03:50:42.619Z,2.72
2022-08-11T03:53:28.018Z,2.88
2022-08-11T03:56:12.926Z,3.03
2022-08-11T03:58:46.455Z,3.03
2022-08-11T04:01:21.670Z,2.90
2022-08-11T04:03:50.871Z,2.88
2022-08-11T04:06:35.139Z,2.80
2022-08-11T04:09:19.423Z,2.78
2022-08-11T04:12:11.731Z,3.20
2022-08-11T04:15:16.818Z,2.53
2022-08-11T04:18:09.167Z,3.08
2022-08-11T04:20:53.985Z,3.30
2022-08-11T04:24:33.063Z,2.95
2022-08-11T04:26:26.487Z,3.47
2022-08-11T04:29:11.918Z,3.40
2022-08-11T04:31:50.409Z,3.10
2022-08-11T04:34:32.700Z,3.00
2022-08-11T04:37:19.219Z,3.30
2022-08-11T04:40:04.293Z,3.38
2022-08-11T04:43:18.135Z,3.58
2022-08-11T04:45:56.354Z,3.25
2022-08-11T04:49:00.236Z,2.97
2022-08-11T04:51:57.369Z,2.67
2022-08-11T04:54:45.119Z,3.50
2022-08-11T04:57:53.142Z,3.33
2022-08-11T05:00:37.951Z,3.03
2022-08-11T05:03:10.206Z,2.97
2022-08-11T05:05:56.790Z,3.30
2022-08-11T05:08:50.298Z,2.92
2022-08-11T05:11:19.744Z,3.22
2022-08-11T05:14:06.285Z,3.40
2022-08-11T05:17:00.770Z,3.97
2022-08-11T05:19:46.554Z,4.07
2022-08-11T05:26:46.697Z,3.65
2022-08-11T05:28:49.851Z,3.47
2022-08-11T05:31:35.737Z,3.80
2022-08-11T05:34:26.650Z,3.50
2022-08-11T05:36:59.178Z,3.47
2022-08-11T05:40:06.703Z,3.95
2022-08-11T05:42:52.951Z,3.85
2022-08-11T05:46:02.388Z,4.10
2022-08-11T05:48:48.279Z,4.03
2022-08-11T05:51:34.073Z,3.38
2022-08-11T05:54:29.375Z,3.97
2022-08-11T05:57:00.015Z,3.78
2022-08-11T05:59:28.270Z,3.60
2022-08-11T06:02:00.131Z,3.85
2022-08-11T06:04:30.104Z,4.22
2022-08-11T06:06:57.680Z,3.53
2022-08-11T06:09:47.231Z,3.58
2022-08-11T06:12:19.572Z,3.55
2022-08-11T06:14:46.125Z,3.70
2022-08-11T06:17:13.772Z,5.13
2022-08-11T06:19:41.652Z,3.28
2022-08-11T06:22:09.661Z,3.45
2022-08-11T06:24:37.590Z,3.45
2022-08-11T06:27:12.831Z,3.33
2022-08-11T06:29:47.642Z,3.30
2022-08-11T06:32:15.647Z,2.80
2022-08-11T06:34:59.608Z,3.47
2022-08-11T06:37:39.410Z,3.25
2022-08-11T06:40:17.100Z,3.60
2022-08-11T06:43:02.210Z,3.75
2022-08-11T06:45:28.550Z,3.25
2022-08-11T06:47:55.596Z,3.63
2022-08-11T06:50:40.883Z,3.20
2022-08-11T06:53:10.508Z,3.33
2022-08-11T06:55:59.041Z,3.22
2022-08-11T06:58:48.624Z,3.40
2022-08-11T07:01:17.088Z,2.65
2022-08-11T07:03:45.294Z,3.65
2022-08-11T07:06:29.131Z,2.78
2022-08-11T07:09:40.425Z,2.88
2022-08-11T07:12:52.560Z,3.03
2022-08-11T07:16:12.152Z,3.22
2022-08-11T07:18:50.586Z,3.00
2022-08-11T07:22:00.845Z,2.55
2022-08-11T07:25:01.457Z,2.55
2022-08-11T07:27:51.214Z,2.40
2022-08-11T07:30:17.987Z,2.60
2022-08-11T07:32:51.909Z,3.20
2022-08-11T07:35:21.069Z,3.35
2022-08-11T07:37:58.190Z,2.65
2022-08-11T07:40:29.134Z,2.20
2022-08-11T07:42:55.704Z,2.92
2022-08-11T07:45:41.560Z,2.95
2022-08-11T07:48:29.352Z,2.85
2022-08-11T07:51:15.175Z,2.53
2022-08-11T07:53:57.863Z,2.72
2022-08-11T07:56:38.563Z,3.15
2022-08-11T08:00:03.598Z,3.10
2022-08-11T08:02:38.187Z,2.80
2022-08-11T08:05:24.656Z,3.30
2022-08-11T08:08:09.419Z,2.78
2022-08-11T08:10:56.343Z,2.57
2022-08-11T08:13:41.155Z,2.78
2022-08-11T08:16:25.814Z,2.27
2022-08-11T08:18:52.516Z,2.33
2022-08-11T08:21:18.809Z,2.45
2022-08-11T08:23:46.565Z,3.20
2022-08-11T08:26:32.791Z,2.63
2022-08-11T08:29:22.043Z,3.13
2022-08-11T08:31:48.823Z,2.42
2022-08-11T08:34:16.286Z,2.40
2022-08-11T08:36:43.104Z,2.38
2022-08-11T08:39:09.494Z,2.20
2022-08-11T08:41:36.591Z,2.50
2022-08-11T08:44:37.895Z,2.60
2022-08-11T08:46:55.061Z,2.42
2022-08-11T08:49:32.039Z,2.35
2022-08-11T08:52:30.742Z,2.17
2022-08-11T08:54:51.056Z,2.10
2022-08-11T08:57:17.875Z,2.03
2022-08-11T08:59:48.988Z,2.20
2022-08-11T09:02:22.103Z,1.83
2022-08-11T09:05:09.044Z,2.30
2022-08-11T09:07:39.835Z,2.13
2022-08-11T09:10:07.610Z,2.22
2022-08-11T09:12:36.280Z,1.90
2022-08-11T09:15:05.749Z,2.13
2022-08-11T09:17:35.258Z,2.30
2022-08-11T09:20:07.139Z,2.20
2022-08-11T09:23:24.268Z,2.08
2022-08-11T09:25:59.633Z,2.13
2022-08-11T09:28:29.484Z,1.90
2022-08-11T09:30:57.013Z,2.42
2022-08-11T09:33:24.836Z,2.40
2022-08-11T09:35:52.369Z,2.20
2022-08-11T09:38:38.474Z,2.00
2022-08-11T09:41:06.851Z,2.10
2022-08-11T09:43:53.780Z,3.13
2022-08-11T09:46:24.184Z,2.22
2022-08-11T09:48:50.771Z,2.00
2022-08-11T09:51:17.187Z,2.88
2022-08-11T09:53:47.209Z,2.40
2022-08-11T09:56:48.797Z,2.50
2022-08-11T09:59:18.318Z,2.28
2022-08-11T10:01:49.242Z,2.25
2022-08-11T10:04:17.614Z,2.10
2022-08-11T10:07:04.431Z,2.28
2022-08-11T10:09:37.033Z,1.85
2022-08-11T10:12:04.655Z,2.50
2022-08-11T10:14:49.984Z,2.20
2022-08-11T10:17:18.585Z,2.00
2022-08-11T10:20:03.936Z,2.10
2022-08-11T10:22:50.666Z,1.92
2022-08-11T10:25:35.404Z,1.75
2022-08-11T10:28:32.884Z,2.00
2022-08-11T10:31:13.548Z,2.10
2022-08-11T10:33:59.892Z,1.92
2022-08-11T10:36:27.289Z,1.73
2022-08-11T10:38:54.176Z,1.60
2022-08-11T10:42:01.890Z,2.00
2022-08-11T10:44:25.493Z,1.70
2022-08-11T10:47:11.209Z,1.88
2022-08-11T10:49:37.716Z,1.50
2022-08-11T10:52:22.832Z,1.90
2022-08-11T10:58:04.671Z,1.55
2022-08-11T11:00:31.635Z,1.58
2022-08-11T11:03:22.317Z,1.77
2022-08-11T11:06:27.745Z,1.60
2022-08-11T11:08:52.828Z,1.80
2022-08-11T11:11:20.775Z,1.45
2022-08-11T11:14:08.307Z,1.60
2022-08-11T11:17:09.389Z,1.80
2022-08-11T11:19:38.629Z,1.75
2022-08-11T11:22:25.499Z,1.52
2022-08-11T11:25:12.768Z,1.80
2022-08-11T11:27:48.623Z,2.08
2022-08-11T11:30:15.835Z,1.60
2022-08-11T11:33:11.320Z,1.63
2022-08-11T11:35:47.367Z,1.70
2022-08-11T11:38:14.283Z,1.70
2022-08-11T11:40:41.835Z,1.77
2022-08-11T11:43:08.453Z,1.88
2022-08-11T11:45:35.235Z,1.50
2022-08-11T11:48:02.941Z,1.77
2022-08-11T11:50:31.459Z,1.58
2022-08-11T11:53:00.016Z,1.35
2022-08-11T11:55:26.929Z,1.70
2022-08-11T11:58:18.455Z,1.58
2022-08-11T12:01:04.191Z,1.52
2022-08-11T12:03:33.288Z,1.25
2022-08-11T12:06:00.056Z,1.40
2022-08-11T12:08:27.935Z,1.80
2022-08-11T12:11:15.213Z,1.75
2022-08-11T12:13:43.926Z,1.50
2022-08-11T12:16:32.907Z,1.40
2022-08-11T12:19:01.405Z,1.42
2022-08-11T12:21:28.587Z,1.45
2022-08-11T12:24:15.094Z,1.58
2022-08-11T12:27:15.119Z,1.25
2022-08-11T12:29:45.179Z,1.50
2022-08-11T12:32:11.828Z,1.50
2022-08-11T12:34:38.155Z,1.90
2022-08-11T12:37:06.846Z,1.70
2022-08-11T12:40:16.479Z,1.80
2022-08-11T12:43:03.830Z,1.23
2022-08-11T12:45:31.441Z,1.50
2022-08-11T12:48:58.679Z,1.60
2022-08-11T12:51:38.365Z,1.40
2022-08-11T12:54:25.501Z,1.40
2022-08-11T12:57:13.373Z,1.50
2022-08-11T12:59:58.927Z,1.40
2022-08-11T13:02:44.680Z,1.52
2022-08-11T13:05:14.680Z,1.42
2022-08-11T13:07:50.752Z,1.35
2022-08-11T13:10:38.293Z,1.40
2022-08-11T13:13:05.608Z,1.52
2022-08-11T13:15:52.239Z,1.60
2022-08-11T13:18:23.276Z,1.30
2022-08-11T13:20:53.510Z,1.23
2022-08-11T13:23:20.222Z,1.20
2022-08-11T13:25:46.865Z,1.25
2022-08-11T13:28:13.270Z,1.40
2022-08-11T13:30:58.982Z,1.33
2022-08-11T13:33:25.534Z,1.20
2022-08-11T13:35:52.716Z,1.65
2022-08-11T13:38:22.019Z,1.50
2022-08-11T13:40:55.992Z,1.40
2022-08-11T13:43:23.232Z,1.40
2022-08-11T13:45:49.729Z,1.30
2022-08-11T13:48:16.904Z,1.50
2022-08-11T13:51:03.596Z,1.30
2022-08-11T13:53:31.143Z,1.63
2022-08-11T13:56:00.738Z,1.30
2022-08-11T13:58:40.036Z,1.40
2022-08-11T14:02:03.511Z,1.20
2022-08-11T14:04:29.039Z,1.45
2022-08-11T14:06:51.912Z,1.80
2022-08-11T14:09:22.897Z,1.58
2022-08-11T14:12:21.817Z,1.52
2022-08-11T14:14:56.264Z,1.70
2022-08-11T14:17:47.027Z,1.23
2022-08-11T14:20:38.678Z,1.48
2022-08-11T14:22:57.268Z,1.38
2022-08-11T14:26:00.456Z,1.30
2022-08-11T14:28:35.212Z,2.08
2022-08-11T14:31:00.979Z,1.45
2022-08-11T14:33:58.338Z,1.20
2022-08-11T14:36:15.433Z,1.50
2022-08-11T14:38:42.142Z,1.60
2022-08-11T14:41:27.428Z,1.23
2022-08-11T14:44:14.812Z,1.10
2022-08-11T14:47:01.488Z,1.25
2022-08-11T14:49:28.219Z,1.15
2022-08-11T14:51:55.953Z,1.50
2022-08-11T14:54:43.995Z,1.67
2022-08-11T14:57:10.363Z,1.67
2022-08-11T14:59:37.612Z,1.38
2022-08-11T15:02:24.569Z,1.23
2022-08-11T15:04:56.133Z,1.27
2022-08-11T15:07:29.788Z,1.23
2022-08-11T15:10:12.774Z,1.27
2022-08-11T15:12:41.986Z,1.40
2022-08-11T15:15:28.054Z,1.38
2022-08-11T15:17:56.506Z,1.30
2022-08-11T15:20:43.767Z,1.20
2022-08-11T15:23:29.207Z,1.25
2022-08-11T15:25:57.728Z,1.33
2022-08-11T15:28:43.374Z,1.98
2022-08-11T15:31:29.197Z,1.17
2022-08-11T15:34:18.075Z,1.27
2022-08-11T15:37:05.156Z,1.40
2022-08-11T15:39:34.492Z,1.20
2022-08-11T15:42:20.864Z,1.67
2022-08-11T15:45:16.233Z,1.05
2022-08-11T15:47:44.428Z,1.20
2022-08-11T15:50:14.870Z,1.40
2022-08-11T15:52:53.590Z,1.48
2022-08-11T15:55:21.197Z,1.67
2022-08-11T15:58:09.304Z,1.30
2022-08-11T16:00:58.904Z,1.40
2022-08-11T16:04:07.146Z,1.58
2022-08-11T16:06:36.800Z,1.50
2022-08-11T16:09:08.184Z,2.95
2022-08-11T16:11:45.567Z,1.42
2022-08-11T16:14:31.249Z,1.58
2022-08-11T16:16:59.048Z,1.42
2022-08-11T16:19:27.054Z,1.55
2022-08-11T16:21:55.268Z,1.33
2022-08-11T16:27:01.641Z,1.40
2022-08-11T16:27:14.490Z,1.20
2022-08-11T16:29:43.687Z,1.80
2022-08-11T16:32:18.484Z,2.00
2022-08-11T16:35:04.004Z,1.00
2022-08-11T16:37:51.797Z,2.22
2022-08-11T16:40:19.112Z,1.38
2022-08-11T16:43:11.043Z,1.33
2022-08-11T16:45:57.755Z,1.38
2022-08-11T16:48:35.264Z,1.25
2022-08-11T16:51:05.101Z,2.22
2022-08-11T16:54:04.273Z,1.40
2022-08-11T16:56:21.843Z,1.65
2022-08-11T16:59:10.617Z,1.20
2022-08-11T17:01:37.448Z,1.35
2022-08-11T17:04:31.465Z,1.20
2022-08-11T17:07:23.917Z,1.30
2022-08-11T17:10:39.065Z,1.48
2022-08-11T17:13:11.536Z,1.58
2022-08-11T17:16:03.033Z,1.40
2022-08-11T17:18:43.242Z,1.55
2022-08-11T17:21:12.695Z,1.17
2022-08-11T17:23:52.726Z,1.10
2022-08-11T17:26:48.003Z,1.73
2022-08-11T17:32:06.033Z,1.00
2022-08-11T17:34:51.315Z,1.10
2022-08-11T17:37:18.569Z,1.30
2022-08-11T17:39:45.839Z,1.10
2022-08-11T17:42:31.470Z,1.20
2022-08-11T17:45:24.341Z,1.10
2022-08-11T17:48:08.968Z,1.02
2022-08-11T17:50:36.296Z,1.02
2022-08-11T17:53:21.018Z,1.20
2022-08-11T17:56:23.100Z,1.00
2022-08-11T17:59:09.239Z,1.10
2022-08-11T18:01:36.505Z,1.05
2022-08-11T18:04:05.404Z,1.00
2022-08-11T18:06:34.123Z,1.35
2022-08-11T18:09:20.704Z,1.10
2022-08-11T18:12:12.276Z,1.30
2022-08-11T18:14:58.939Z,1.20
2022-08-11T18:17:43.820Z,1.10
2022-08-11T18:20:28.811Z,1.30
2022-08-11T18:26:06.374Z,1.00
2022-08-11T18:28:56.566Z,1.95
2022-08-11T18:31:42.451Z,2.35
2022-08-11T18:34:31.761Z,1.35
2022-08-11T18:37:22.881Z,1.40
2022-08-11T18:40:15.087Z,1.40
2022-08-11T18:43:00.214Z,1.10
2022-08-11T18:48:33.268Z,1.33
2022-08-11T18:51:30.584Z,1.30
2022-08-11T18:54:23.435Z,1.25
2022-08-11T18:57:08.650Z,1.83
2022-08-11T18:59:55.496Z,1.48
2022-08-11T19:02:42.983Z,1.30
2022-08-11T19:06:05.945Z,2.08
2022-08-11T19:08:40.579Z,2.10
2022-08-11T19:11:26.868Z,1.70
2022-08-11T19:14:12.300Z,2.25
2022-08-11T19:16:59.784Z,3.90
2022-08-11T19:19:47.682Z,4.47
2022-08-11T19:22:34.552Z,3.20
2022-08-11T19:25:25.132Z,2.60
2022-08-11T19:28:11.521Z,2.47
2022-08-11T19:30:56.856Z,2.22
2022-08-11T19:33:59.744Z,2.13
2022-08-11T19:36:47.665Z,2.50
2022-08-11T19:39:33.026Z,2.45
2022-08-11T19:42:18.727Z,2.63
2022-08-11T19:45:04.011Z,2.35
2022-08-11T19:47:59.160Z,2.70
2022-08-11T19:50:56.875Z,2.55
2022-08-11T19:53:42.253Z,2.50
2022-08-11T19:56:27.632Z,2.80
2022-08-11T19:59:12.400Z,2.88
2022-08-11T20:02:01.675Z,2.97
2022-08-11T20:04:59.243Z,2.97
2022-08-11T20:10:29.599Z,3.72
2022-08-11T20:13:19.196Z,2.88
2022-08-11T20:16:07.245Z,2.65
2022-08-11T20:18:53.104Z,2.20
2022-08-11T20:21:39.047Z,1.58
2022-08-11T20:24:24.250Z,1.85
2022-08-11T20:27:24.693Z,1.52
2022-08-11T20:30:11.124Z,1.38
2022-08-11T20:32:56.950Z,1.52
2022-08-11T20:35:42.035Z,1.60
2022-08-11T20:38:27.873Z,1.90
2022-08-11T20:41:16.231Z,1.70
2022-08-11T20:44:06.951Z,1.77
2022-08-11T20:46:53.908Z,1.27
2022-08-11T20:52:30.830Z,1.60
2022-08-11T20:55:19.156Z,1.48
2022-08-11T20:58:17.849Z,1.70
2022-08-11T21:01:05.187Z,1.58
2022-08-11T21:04:01.056Z,1.40
2022-08-11T21:06:47.273Z,1.42
2022-08-11T21:10:09.219Z,1.48
2022-08-11T21:12:37.647Z,1.30
2022-08-11T21:15:38.650Z,1.73
2022-08-11T21:18:29.630Z,1.17
2022-08-11T21:21:16.380Z,1.60
2022-08-11T21:24:01.809Z,1.65
2022-08-11T21:26:50.594Z,1.30
2022-08-11T21:29:36.638Z,1.58
2022-08-11T21:32:24.545Z,1.80
2022-08-11T21:35:09.823Z,1.48
2022-08-11T21:40:43.135Z,1.40
2022-08-11T21:43:29.518Z,1.88
2022-08-11T21:46:14.921Z,1.65
2022-08-11T21:51:46.164Z,1.60
2022-08-11T21:54:31.047Z,1.40
2022-08-11T21:57:16.502Z,1.65
2022-08-11T22:00:11.656Z,1.60
2022-08-11T22:02:57.201Z,1.63
2022-08-11T22:05:42.405Z,1.50
2022-08-11T22:08:27.751Z,1.63
2022-08-11T22:14:05.951Z,1.70
2022-08-11T22:16:53.089Z,1.38
2022-08-11T22:19:38.427Z,1.92
2022-08-11T22:25:16.722Z,1.90
2022-08-11T22:28:03.609Z,1.83
2022-08-11T22:30:48.501Z,1.60
2022-08-11T22:33:33.234Z,1.42
2022-08-11T22:36:25.073Z,1.48
2022-08-11T22:39:10.465Z,1.48
2022-08-11T22:44:40.328Z,1.70
2022-08-11T22:47:27.413Z,1.48
2022-08-11T22:50:24.606Z,1.52
2022-08-11T22:53:10.034Z,1.60
2022-08-11T22:58:39.714Z,1.63
2022-08-11T23:01:24.590Z,1.60
2022-08-11T23:04:10.214Z,1.70
2022-08-11T23:07:00.194Z,1.60
2022-08-11T23:09:45.259Z,1.70
2022-08-11T23:12:31.232Z,1.70
2022-08-11T23:15:17.970Z,1.85
2022-08-11T23:18:02.687Z,1.70
2022-08-11T23:20:52.901Z,1.42
2022-08-11T23:23:40.267Z,1.60
2022-08-11T23:26:25.577Z,2.00
2022-08-11T23:29:11.312Z,1.80
2022-08-11T23:31:57.108Z,2.28
2022-08-11T23:35:04.882Z,1.75
2022-08-11T23:37:50.286Z,1.48
2022-08-11T23:40:35.083Z,1.60
2022-08-11T23:43:20.364Z,1.70
2022-08-11T23:46:05.229Z,1.77
2022-08-11T23:48:50.471Z,1.60
2022-08-11T23:51:41.110Z,1.73
2022-08-11T23:54:26.717Z,1.85
2022-08-11T23:57:11.439Z,1.45
2022-08-11T23:59:56.166Z,1.55
